Time;durP1;ratioP1;P1;durP2;ratioP2;P2;SDS_P1;SDS_P2;PMS_P1;PMS_P2;Temp;Humidity;BMP_temperature;BMP_pressure;BME280_temperature;BME280_humidity;BME280_pressure;Samples;Min_cycle;Max_cycle;Signal;HPM_P1;HPM_P2
2022/03/21 00:00:47;;;;;;;33.40;19.47;;;6.20;99.90;;;;;;5009523;28;20458;-71
2022/03/21 00:03:17;;;;;;;30.80;18.97;;;6.10;99.90;;;;;;5009709;28;20801;-72
2022/03/21 00:05:45;;;;;;;31.80;18.83;;;6.00;99.90;;;;;;5009953;28;20539;-71
2022/03/21 00:08:12;;;;;;;31.63;17.90;;;5.90;99.90;;;;;;5007500;28;20890;-71
2022/03/21 00:10:40;;;;;;;28.97;17.73;;;5.90;99.90;;;;;;5009164;28;20979;-71
2022/03/21 00:13:07;;;;;;;31.50;18.13;;;5.80;99.90;;;;;;5008507;28;20453;-71
2022/03/21 00:15:35;;;;;;;29.23;18.07;;;5.80;99.90;;;;;;5010081;28;20504;-71
2022/03/21 00:18:03;;;;;;;35.17;18.87;;;5.80;99.90;;;;;;5009671;28;21040;-72
2022/03/21 00:20:32;;;;;;;30.60;16.87;;;5.80;99.90;;;;;;5009887;28;20808;-72
2022/03/21 00:23:00;;;;;;;32.07;17.83;;;5.90;99.90;;;;;;5009687;28;20454;-71
2022/03/21 00:25:26;;;;;;;28.60;17.10;;;5.90;99.90;;;;;;5006656;28;20489;-72
2022/03/21 00:27:53;;;;;;;32.33;17.73;;;5.90;99.90;;;;;;5009834;28;20889;-71
2022/03/21 00:30:20;;;;;;;30.73;18.03;;;5.90;99.90;;;;;;5009925;28;20950;-72
2022/03/21 00:32:47;;;;;;;30.10;17.50;;;5.90;99.90;;;;;;5005800;28;20458;-71
2022/03/21 00:35:15;;;;;;;31.00;17.73;;;5.90;99.90;;;;;;5013642;28;20505;-71
2022/03/21 00:37:44;;;;;;;32.13;17.30;;;5.90;99.90;;;;;;5013192;28;20466;-71
2022/03/21 00:40:13;;;;;;;32.43;17.90;;;5.90;99.90;;;;;;5013387;28;20456;-72
2022/03/21 00:42:40;;;;;;;29.37;18.60;;;5.80;99.90;;;;;;5012981;28;20450;-71
2022/03/21 00:45:09;;;;;;;31.10;17.40;;;5.80;99.90;;;;;;5013544;28;20504;-72
2022/03/21 00:47:36;;;;;;;28.70;17.00;;;5.70;99.90;;;;;;5012388;28;20486;-72
2022/03/21 00:50:03;;;;;;;28.57;16.67;;;5.70;99.90;;;;;;5007312;28;20450;-71
2022/03/21 00:52:30;;;;;;;28.77;17.57;;;5.60;99.90;;;;;;5013100;28;20458;-72
2022/03/21 00:54:58;;;;;;;30.27;16.93;;;5.60;99.90;;;;;;5012863;28;20462;-71
2022/03/21 00:57:25;;;;;;;29.23;16.50;;;5.50;99.90;;;;;;5012145;28;20500;-72
2022/03/21 00:59:52;;;;;;;29.03;16.97;;;5.50;99.90;;;;;;5013328;28;20454;-72
2022/03/21 01:02:18;;;;;;;26.93;16.43;;;5.50;99.90;;;;;;5013172;28;20533;-72
2022/03/21 01:04:45;;;;;;;28.60;16.33;;;5.50;99.90;;;;;;5012575;28;20462;-71
2022/03/21 01:07:12;;;;;;;28.23;17.10;;;5.50;99.90;;;;;;5012968;28;20493;-72
2022/03/21 01:09:38;;;;;;;30.03;15.60;;;5.50;99.90;;;;;;5012412;28;20458;-71
2022/03/21 01:12:09;;;;;;;29.27;17.47;;;5.60;99.90;;;;;;5013232;28;20501;-72
2022/03/21 01:14:36;;;;;;;27.00;16.33;;;5.60;99.90;;;;;;5012392;28;20454;-71
2022/03/21 01:17:03;;;;;;;27.40;15.70;;;5.60;99.90;;;;;;5009139;28;20508;-71
2022/03/21 01:19:30;;;;;;;27.87;15.63;;;5.60;99.90;;;;;;5012073;28;20442;-72
2022/03/21 01:21:57;;;;;;;29.00;16.30;;;5.60;99.90;;;;;;5012883;28;20532;-71
2022/03/21 01:24:24;;;;;;;26.87;15.97;;;5.60;99.90;;;;;;5009199;28;20465;-72
2022/03/21 01:26:50;;;;;;;31.07;16.30;;;5.60;99.90;;;;;;5005794;28;20489;-72
2022/03/21 01:29:18;;;;;;;27.80;15.73;;;5.60;99.90;;;;;;5011846;28;20943;-71
2022/03/21 01:31:45;;;;;;;27.37;15.67;;;5.50;99.90;;;;;;5012491;28;20915;-71
2022/03/21 01:34:12;;;;;;;31.90;16.93;;;5.50;99.90;;;;;;5012274;28;20508;-71
2022/03/21 01:36:38;;;;;;;24.20;15.80;;;5.50;99.90;;;;;;5012271;28;20466;-71
2022/03/21 01:39:05;;;;;;;24.40;15.20;;;5.50;99.90;;;;;;5011688;28;20446;-72
2022/03/21 01:41:31;;;;;;;25.40;15.10;;;5.40;99.90;;;;;;5011802;28;20453;-71
2022/03/21 01:44:00;;;;;;;28.07;15.67;;;5.40;99.90;;;;;;5011650;28;20853;-71
2022/03/21 01:46:29;;;;;;;25.60;15.20;;;5.40;99.90;;;;;;5011783;28;20474;-72
2022/03/21 01:48:56;;;;;;;26.77;16.33;;;5.30;99.90;;;;;;5011459;28;20485;-71
2022/03/21 01:51:23;;;;;;;25.17;16.07;;;5.30;99.90;;;;;;5012609;28;20466;-72
2022/03/21 01:56:35;;;;;;;26.47;15.43;;;5.10;99.90;;;;;;5008414;28;20531;-71
2022/03/21 01:59:02;;;;;;;25.17;16.50;;;5.10;99.90;;;;;;5011883;28;20454;-71
2022/03/21 02:01:30;;;;;;;34.73;17.50;;;5.10;99.90;;;;;;5011457;28;20899;-71
2022/03/21 02:03:57;;;;;;;31.20;18.33;;;5.00;99.90;;;;;;5010683;28;20485;-71
2022/03/21 02:06:25;;;;;;;25.97;15.70;;;5.00;99.90;;;;;;5011636;28;20482;-72
2022/03/21 02:08:52;;;;;;;31.37;17.57;;;5.00;99.90;;;;;;5011500;28;20585;-71
2022/03/21 02:11:19;;;;;;;30.30;16.67;;;4.90;99.90;;;;;;5011770;28;21011;-72
2022/03/21 02:13:46;;;;;;;26.57;15.93;;;4.90;99.90;;;;;;5011678;28;20517;-71
2022/03/21 02:16:13;;;;;;;28.43;15.53;;;4.90;99.90;;;;;;5012155;28;20861;-72
2022/03/21 02:18:43;;;;;;;27.60;17.37;;;4.80;99.90;;;;;;5009653;28;20478;-72
2022/03/21 02:21:17;;;;;;;29.67;16.67;;;4.80;99.90;;;;;;5006087;28;20804;-71
2022/03/21 02:23:49;;;;;;;28.77;16.57;;;4.70;99.90;;;;;;5011506;28;20458;-71
2022/03/21 02:26:18;;;;;;;25.07;15.60;;;4.60;99.90;;;;;;5008481;28;20482;-71
2022/03/21 02:28:46;;;;;;;27.80;16.37;;;4.60;99.90;;;;;;5010909;28;20524;-72
2022/03/21 02:31:14;;;;;;;29.23;16.90;;;4.50;99.90;;;;;;5011492;28;20458;-71
2022/03/21 02:33:41;;;;;;;28.47;16.47;;;4.50;99.90;;;;;;5010908;28;20454;-71
2022/03/21 02:36:09;;;;;;;30.63;16.53;;;4.50;99.90;;;;;;5007090;28;20442;-71
2022/03/21 02:38:37;;;;;;;26.13;16.50;;;4.40;99.90;;;;;;5010865;28;20478;-71
2022/03/21 02:41:04;;;;;;;27.87;16.87;;;4.40;99.90;;;;;;5011626;28;20454;-71
2022/03/21 02:43:32;;;;;;;32.67;17.37;;;4.40;99.90;;;;;;5010642;28;21125;-72
2022/03/21 02:46:06;;;;;;;24.93;15.87;;;4.40;99.90;;;;;;5006700;28;20496;-71
2022/03/21 02:48:32;;;;;;;27.40;15.83;;;4.40;99.90;;;;;;5010903;28;20826;-71
2022/03/21 02:51:02;;;;;;;29.13;16.40;;;4.40;99.90;;;;;;5005701;28;20472;-71
2022/03/21 02:53:32;;;;;;;25.90;15.50;;;4.40;99.90;;;;;;5011500;28;20504;-71
2022/03/21 02:55:59;;;;;;;30.30;15.07;;;4.30;99.90;;;;;;5009343;28;20497;-71
2022/03/21 02:58:25;;;;;;;29.03;15.47;;;4.30;99.90;;;;;;5008973;28;20470;-71
2022/03/21 03:01:02;;;;;;;30.17;16.40;;;4.40;99.90;;;;;;5010317;28;20450;-71
2022/03/21 03:03:29;;;;;;;21.93;14.40;;;4.40;99.90;;;;;;5010769;28;20516;-72
2022/03/21 03:05:56;;;;;;;23.20;14.30;;;4.50;99.90;;;;;;5010602;28;20525;-71
2022/03/21 03:08:22;;;;;;;27.77;15.17;;;4.60;99.90;;;;;;5009620;28;20609;-71
2022/03/21 03:10:49;;;;;;;26.63;16.40;;;4.60;99.90;;;;;;5010608;28;21020;-71
2022/03/21 03:13:15;;;;;;;25.43;14.67;;;4.60;99.90;;;;;;5010428;28;20500;-71
2022/03/21 03:15:42;;;;;;;22.83;13.90;;;4.70;99.90;;;;;;5010530;28;20481;-71
2022/03/21 03:18:10;;;;;;;23.10;14.43;;;4.80;99.90;;;;;;5010718;28;20528;-71
2022/03/21 03:20:37;;;;;;;21.07;13.63;;;4.80;99.90;;;;;;5010208;28;20528;-71
2022/03/21 03:23:06;;;;;;;30.60;15.27;;;4.80;99.90;;;;;;5009988;28;20800;-72
2022/03/21 03:25:33;;;;;;;25.60;13.97;;;4.80;99.90;;;;;;5005890;28;20950;-71
2022/03/21 03:27:59;;;;;;;24.60;13.90;;;4.80;99.90;;;;;;5007406;28;20486;-72
2022/03/21 03:30:26;;;;;;;28.43;14.87;;;4.70;99.90;;;;;;5006038;28;20455;-72
2022/03/21 03:32:53;;;;;;;24.00;14.50;;;4.70;99.90;;;;;;5010031;28;20454;-72
2022/03/21 03:35:21;;;;;;;24.43;14.80;;;4.60;99.90;;;;;;5009502;28;20446;-71
2022/03/21 03:37:48;;;;;;;28.83;15.97;;;4.50;99.90;;;;;;5009728;28;20978;-71
2022/03/21 03:40:14;;;;;;;27.00;15.00;;;4.40;99.90;;;;;;5010446;28;20954;-72
2022/03/21 03:42:41;;;;;;;28.80;14.50;;;4.40;99.90;;;;;;5010166;28;20551;-71
2022/03/21 03:45:09;;;;;;;27.00;14.27;;;4.30;99.90;;;;;;5009880;28;20461;-71
2022/03/21 03:47:35;;;;;;;27.53;14.87;;;4.20;99.90;;;;;;5006599;28;20985;-72
2022/03/21 03:50:02;;;;;;;25.47;14.40;;;4.10;99.90;;;;;;5009016;28;20527;-72
2022/03/21 03:52:30;;;;;;;27.67;14.97;;;4.00;99.90;;;;;;5010429;28;20520;-71
2022/03/21 03:54:57;;;;;;;28.77;15.67;;;3.90;99.90;;;;;;5009688;28;20807;-71
2022/03/21 03:57:23;;;;;;;29.30;16.07;;;3.80;99.90;;;;;;5008203;28;20470;-72
2022/03/21 03:59:50;;;;;;;28.67;15.87;;;3.70;99.90;;;;;;5009403;28;20504;-71
2022/03/21 04:02:17;;;;;;;27.67;15.90;;;3.60;99.90;;;;;;5010280;28;20520;-71
2022/03/21 04:04:43;;;;;;;31.63;17.10;;;3.50;99.90;;;;;;5013638;28;20513;-71
2022/03/21 04:07:10;;;;;;;31.77;18.30;;;3.50;99.90;;;;;;5013609;28;20490;-71
2022/03/21 04:09:38;;;;;;;29.33;16.53;;;3.40;99.90;;;;;;5013565;28;20958;-72
2022/03/21 04:12:06;;;;;;;30.00;16.97;;;3.40;99.90;;;;;;5010941;28;20981;-72
2022/03/21 04:14:32;;;;;;;28.80;16.90;;;3.30;99.90;;;;;;5013832;28;20853;-72
2022/03/21 04:16:59;;;;;;;32.50;17.83;;;3.30;99.90;;;;;;5013935;28;20470;-71
2022/03/21 04:19:26;;;;;;;31.23;17.10;;;3.20;99.90;;;;;;5013725;28;20516;-71
2022/03/21 04:21:53;;;;;;;30.23;17.60;;;3.20;99.90;;;;;;5013519;28;20571;-72
2022/03/21 04:24:20;;;;;;;28.37;17.40;;;3.20;99.90;;;;;;5011434;28;20458;-71
2022/03/21 04:26:48;;;;;;;30.87;16.97;;;3.10;99.90;;;;;;5011409;28;20605;-71
2022/03/21 04:29:15;;;;;;;29.90;17.37;;;3.10;99.90;;;;;;5010824;28;20450;-71
2022/03/21 04:31:41;;;;;;;33.87;17.67;;;3.00;99.90;;;;;;5012370;28;21025;-72
2022/03/21 04:34:08;;;;;;;35.03;18.63;;;3.00;99.90;;;;;;5013857;28;20449;-72
2022/03/21 04:36:35;;;;;;;32.20;17.47;;;3.00;99.90;;;;;;5013463;28;20451;-71
2022/03/21 04:39:01;;;;;;;34.20;18.80;;;2.90;99.90;;;;;;5013705;28;20512;-71
2022/03/21 04:41:29;;;;;;;29.10;16.93;;;2.90;99.90;;;;;;5012916;28;20982;-72
2022/03/21 04:43:57;;;;;;;32.23;18.80;;;2.90;99.90;;;;;;5013577;28;20461;-72
2022/03/21 04:46:25;;;;;;;32.47;18.53;;;2.90;99.90;;;;;;5013339;28;20466;-71
2022/03/21 04:48:52;;;;;;;33.00;18.03;;;2.80;99.90;;;;;;5013423;28;20816;-71
2022/03/21 04:51:19;;;;;;;32.87;18.00;;;2.80;99.90;;;;;;5006906;28;20458;-71
2022/03/21 04:53:46;;;;;;;33.00;18.10;;;2.80;99.90;;;;;;5012274;28;21046;-71
2022/03/21 04:56:12;;;;;;;34.73;17.80;;;2.70;99.90;;;;;;5013385;28;20450;-71
2022/03/21 04:58:39;;;;;;;33.40;17.83;;;2.80;99.90;;;;;;5010299;28;20474;-71
2022/03/21 05:01:07;;;;;;;28.30;16.30;;;2.70;99.90;;;;;;5010366;28;20481;-72
2022/03/21 05:03:34;;;;;;;30.43;18.27;;;2.70;99.90;;;;;;5012882;28;20462;-72
2022/03/21 05:06:01;;;;;;;31.43;16.90;;;2.80;99.90;;;;;;5012556;28;21021;-71
2022/03/21 05:08:27;;;;;;;31.50;17.37;;;2.80;99.90;;;;;;5012540;28;20617;-71
2022/03/21 05:10:56;;;;;;;28.73;16.67;;;2.80;99.90;;;;;;5006390;28;20874;-72
2022/03/21 05:13:23;;;;;;;32.17;16.93;;;2.80;99.90;;;;;;5011899;28;20881;-71
2022/03/21 05:15:50;;;;;;;33.27;16.27;;;2.80;99.90;;;;;;5012217;28;20577;-71
2022/03/21 05:18:18;;;;;;;30.77;16.50;;;2.70;99.90;;;;;;5012939;28;20532;-71
2022/03/21 05:20:45;;;;;;;31.67;16.87;;;2.70;99.90;;;;;;5006097;28;20549;-71
2022/03/21 05:31:26;;;;;;;26.13;14.67;;;2.80;99.90;;;;;;5009774;28;20485;-71
2022/03/21 05:36:39;;;;;;;25.20;14.70;;;2.90;99.90;;;;;;5012525;28;21105;-71
2022/03/21 05:39:05;;;;;;;25.07;14.40;;;2.90;99.90;;;;;;5012653;28;20454;-71
2022/03/21 05:41:32;;;;;;;22.23;14.43;;;3.00;99.90;;;;;;5012229;28;20455;-72
2022/03/21 05:43:59;;;;;;;21.20;13.60;;;3.00;99.90;;;;;;5012118;28;20450;-72
2022/03/21 05:46:26;;;;;;;23.87;14.23;;;3.00;99.90;;;;;;5012037;28;20540;-71
2022/03/21 05:48:59;;;;;;;26.43;16.00;;;3.00;99.90;;;;;;5005673;28;20458;-70
2022/03/21 05:51:28;;;;;;;29.47;14.80;;;3.00;99.90;;;;;;5012233;28;20462;-71
2022/03/21 05:53:56;;;;;;;26.93;15.20;;;3.10;99.90;;;;;;5011807;28;20458;-71
2022/03/21 05:56:25;;;;;;;31.17;15.10;;;3.10;99.90;;;;;;5010023;28;20455;-71
2022/03/21 05:58:52;;;;;;;29.70;13.70;;;3.20;99.90;;;;;;5010271;28;20463;-71
2022/03/21 06:01:22;;;;;;;33.13;16.30;;;3.30;99.90;;;;;;5010406;28;20549;-71
2022/03/21 06:03:49;;;;;;;27.37;15.87;;;3.30;99.90;;;;;;5011197;28;20454;-71
2022/03/21 06:06:17;;;;;;;26.40;15.53;;;3.40;99.90;;;;;;5011641;28;20458;-71
2022/03/21 06:08:44;;;;;;;31.03;15.90;;;3.60;99.90;;;;;;5011620;28;20836;-71
2022/03/21 06:11:12;;;;;;;33.47;15.73;;;3.80;99.90;;;;;;5010630;28;20458;-71
2022/03/21 06:13:42;;;;;;;25.70;15.33;;;4.00;99.90;;;;;;5011347;28;20458;-71
2022/03/21 06:16:09;;;;;;;30.50;15.63;;;4.30;99.90;;;;;;5008414;28;20451;-71
2022/03/21 06:18:37;;;;;;;28.13;14.60;;;4.50;99.90;;;;;;5009463;28;21013;-71
2022/03/21 06:21:06;;;;;;;35.43;15.83;;;4.70;99.90;;;;;;5011284;28;20516;-71
2022/03/21 06:23:34;;;;;;;29.20;15.67;;;4.80;99.90;;;;;;5011561;28;20446;-71
2022/03/21 06:26:00;;;;;;;32.00;17.30;;;4.80;99.90;;;;;;5005166;28;20446;-71
2022/03/21 06:28:29;;;;;;;36.00;16.63;;;4.80;99.90;;;;;;5011006;28;20544;-71
2022/03/21 06:30:56;;;;;;;28.47;15.80;;;4.80;99.90;;;;;;5009175;28;20481;-70
2022/03/21 06:33:25;;;;;;;26.10;15.60;;;4.90;99.90;;;;;;5011270;28;20455;-70
2022/03/21 06:35:53;;;;;;;29.30;14.43;;;5.00;99.90;;;;;;5011507;28;20504;-70
2022/03/21 06:38:20;;;;;;;29.70;14.57;;;5.00;99.90;;;;;;5011297;28;20466;-71
2022/03/21 06:40:47;;;;;;;33.00;15.90;;;5.00;99.90;;;;;;5010904;28;20458;-70
2022/03/21 06:43:15;;;;;;;30.40;15.70;;;5.00;99.90;;;;;;5009728;28;20450;-70
2022/03/21 06:45:42;;;;;;;33.30;15.70;;;5.10;99.90;;;;;;5010870;28;20528;-70
2022/03/21 06:48:09;;;;;;;33.43;16.10;;;5.10;99.90;;;;;;5011032;28;20997;-70
2022/03/21 06:50:36;;;;;;;25.80;14.90;;;5.20;99.90;;;;;;5011083;28;20485;-71
2022/03/21 06:53:03;;;;;;;30.30;15.60;;;5.30;99.90;;;;;;5010821;28;20577;-70
2022/03/21 06:55:30;;;;;;;36.43;17.57;;;5.40;99.90;;;;;;5010744;28;20512;-71
2022/03/21 06:57:58;;;;;;;33.50;17.50;;;5.60;99.90;;;;;;5005030;28;20558;-70
2022/03/21 07:00:24;;;;;;;31.53;17.90;;;5.90;99.90;;;;;;5010153;28;20565;-71
2022/03/21 07:02:51;;;;;;;34.17;16.87;;;6.40;99.90;;;;;;5010826;28;20512;-73
2022/03/21 07:05:18;;;;;;;32.73;16.77;;;6.80;99.90;;;;;;5010338;28;20868;-71
2022/03/21 07:07:46;;;;;;;34.43;18.13;;;7.10;99.90;;;;;;5000432;28;21436;-72
2022/03/21 07:10:13;;;;;;;29.97;17.10;;;7.40;99.90;;;;;;5009007;28;20450;-72
2022/03/21 07:12:40;;;;;;;30.60;17.93;;;7.80;99.90;;;;;;5010411;28;20489;-72
2022/03/21 07:15:09;;;;;;;28.37;18.80;;;8.00;99.90;;;;;;5010240;28;20451;-71
2022/03/21 07:17:36;;;;;;;32.57;18.33;;;7.90;99.90;;;;;;5008319;28;20478;-71
2022/03/21 07:20:03;;;;;;;28.97;18.53;;;8.20;99.90;;;;;;5010213;28;20458;-71
2022/03/21 07:22:30;;;;;;;30.40;17.17;;;8.40;99.90;;;;;;5006342;28;20565;-73
2022/03/21 07:24:56;;;;;;;32.47;18.60;;;8.50;99.90;;;;;;4996837;28;20467;-72
2022/03/21 07:27:23;;;;;;;37.10;18.37;;;8.80;99.90;;;;;;5008895;28;20489;-71
2022/03/21 07:29:50;;;;;;;28.23;16.53;;;9.00;99.90;;;;;;5007758;28;20956;-71
2022/03/21 07:32:18;;;;;;;25.77;15.93;;;9.30;99.90;;;;;;5003254;28;20505;-72
2022/03/21 07:34:44;;;;;;;29.90;17.17;;;9.60;99.90;;;;;;5009076;28;20505;-72
2022/03/21 07:37:11;;;;;;;29.10;16.87;;;9.70;99.90;;;;;;5003599;28;20552;-71
2022/03/21 07:39:39;;;;;;;31.40;17.90;;;9.90;99.90;;;;;;5008430;28;20872;-72
2022/03/21 07:42:07;;;;;;;32.90;17.23;;;10.10;99.90;;;;;;5005668;28;20483;-72
2022/03/21 07:47:23;;;;;;;27.00;16.03;;;10.40;99.90;;;;;;5007911;28;20976;-72
2022/03/21 07:49:50;;;;;;;26.70;16.30;;;10.50;99.90;;;;;;5008603;28;20454;-72
2022/03/21 07:52:19;;;;;;;29.43;15.60;;;10.40;99.90;;;;;;5007524;28;20449;-72
2022/03/21 07:54:46;;;;;;;28.10;16.50;;;10.50;99.90;;;;;;5007186;28;20469;-72
2022/03/21 07:57:13;;;;;;;25.00;15.00;;;10.50;99.90;;;;;;5008190;28;20474;-71
2022/03/21 07:59:39;;;;;;;28.87;15.10;;;10.30;99.90;;;;;;5007495;28;20446;-70
2022/03/21 08:02:06;;;;;;;28.03;16.40;;;10.10;99.90;;;;;;5003743;28;20454;-71
2022/03/21 08:04:35;;;;;;;24.93;13.90;;;9.90;99.90;;;;;;5008374;28;20532;-71
2022/03/21 08:07:01;;;;;;;22.50;14.50;;;9.60;99.90;;;;;;5007980;28;20465;-71
2022/03/21 08:09:28;;;;;;;22.87;14.87;;;9.50;99.90;;;;;;5008292;28;20489;-71
2022/03/21 08:11:55;;;;;;;22.93;14.50;;;9.50;99.90;;;;;;5007859;28;20454;-72
2022/03/21 08:14:22;;;;;;;25.17;14.07;;;9.40;99.90;;;;;;5003949;28;20458;-72
2022/03/21 08:16:50;;;;;;;21.20;14.80;;;9.30;99.90;;;;;;4997677;28;21021;-71
2022/03/21 08:19:18;;;;;;;26.83;14.00;;;9.40;99.90;;;;;;5006283;28;20474;-71
2022/03/21 08:21:46;;;;;;;23.73;15.47;;;9.50;99.90;;;;;;5004093;28;20557;-71
2022/03/21 08:24:13;;;;;;;24.77;15.27;;;9.40;99.90;;;;;;5005432;28;20533;-72
2022/03/21 08:26:40;;;;;;;24.30;14.20;;;9.20;99.90;;;;;;5004047;28;20548;-71
2022/03/21 08:29:08;;;;;;;23.47;14.93;;;9.20;99.90;;;;;;5008632;28;20544;-72
2022/03/21 08:31:35;;;;;;;23.70;14.70;;;9.20;99.90;;;;;;5009795;28;20545;-72
2022/03/21 08:34:03;;;;;;;26.37;15.23;;;9.30;99.90;;;;;;5006703;28;20458;-71
2022/03/21 08:36:30;;;;;;;25.47;15.20;;;9.70;99.90;;;;;;5004733;28;20914;-72
2022/03/21 08:38:58;;;;;;;24.37;16.10;;;10.00;99.90;;;;;;5008935;28;20496;-71
2022/03/21 08:41:25;;;;;;;28.03;15.70;;;10.30;99.90;;;;;;5006214;28;20456;-71
2022/03/21 08:43:52;;;;;;;28.53;16.83;;;10.60;99.90;;;;;;5004569;28;20504;-72
2022/03/21 08:46:21;;;;;;;26.27;16.20;;;10.70;99.90;;;;;;5002143;28;20977;-72
2022/03/21 08:51:32;;;;;;;24.20;14.50;;;10.80;99.90;;;;;;5010859;28;20445;-72
2022/03/21 08:54:01;;;;;;;24.50;15.47;;;10.70;99.90;;;;;;5011309;28;20462;-71
2022/03/21 08:56:28;;;;;;;24.17;15.27;;;10.90;99.90;;;;;;5011279;28;20474;-72
2022/03/21 08:58:55;;;;;;;30.03;15.97;;;11.00;99.90;;;;;;5012201;28;20454;-71
2022/03/21 09:01:22;;;;;;;25.13;15.40;;;11.00;99.90;;;;;;5011875;28;20454;-72
2022/03/21 09:03:49;;;;;;;23.37;15.43;;;10.80;99.90;;;;;;5011883;28;20465;-72
2022/03/21 09:06:17;;;;;;;23.87;14.67;;;10.80;99.90;;;;;;5009634;28;20907;-72
2022/03/21 09:08:43;;;;;;;25.03;14.23;;;11.10;99.90;;;;;;5012911;28;20486;-72
2022/03/21 09:11:11;;;;;;;23.07;15.37;;;11.40;99.90;;;;;;5012388;28;20480;-72
2022/03/21 09:13:38;;;;;;;29.43;15.37;;;11.40;99.90;;;;;;5011020;28;20458;-72
2022/03/21 09:16:05;;;;;;;24.70;14.73;;;11.50;99.00;;;;;;5011605;28;20459;-72
2022/03/21 09:18:32;;;;;;;24.13;15.03;;;11.30;99.30;;;;;;5011313;28;20557;-71
2022/03/21 09:20:59;;;;;;;24.73;14.87;;;11.00;99.30;;;;;;5010028;28;20470;-72
2022/03/21 09:23:25;;;;;;;27.17;14.13;;;11.10;99.90;;;;;;5010108;28;20477;-72
2022/03/21 09:25:52;;;;;;;23.10;14.70;;;11.00;99.70;;;;;;5005323;28;20458;-72
2022/03/21 09:28:20;;;;;;;21.73;14.07;;;11.20;99.90;;;;;;5010489;28;20493;-72
2022/03/21 09:30:47;;;;;;;28.27;15.80;;;11.40;99.80;;;;;;5007443;28;20958;-71
2022/03/21 09:33:15;;;;;;;28.37;15.83;;;11.50;99.40;;;;;;5009995;28;20524;-72
2022/03/21 09:35:43;;;;;;;26.10;16.20;;;11.60;98.80;;;;;;5005581;28;20457;-71
2022/03/21 09:38:10;;;;;;;24.60;15.33;;;11.60;99.50;;;;;;5011893;28;20959;-71
2022/03/21 09:40:37;;;;;;;25.67;15.47;;;11.60;99.00;;;;;;5012153;28;20897;-71
2022/03/21 09:43:04;;;;;;;28.93;16.03;;;11.60;98.90;;;;;;5010137;28;20529;-72
2022/03/21 09:45:33;;;;;;;25.10;15.50;;;11.40;99.20;;;;;;5011255;28;20459;-71
2022/03/21 09:48:12;;;;;;;29.27;16.00;;;11.50;99.00;;;;;;5011781;28;20490;-72
2022/03/21 09:50:42;;;;;;;25.93;15.90;;;11.50;99.80;;;;;;5007812;28;20450;-72
2022/03/21 09:53:10;;;;;;;23.37;15.10;;;11.60;99.90;;;;;;5011391;28;20461;-72
2022/03/21 09:55:38;;;;;;;26.20;15.93;;;11.80;99.90;;;;;;5006182;28;20461;-72
2022/03/21 09:58:05;;;;;;;26.73;15.90;;;12.30;99.90;;;;;;5010751;28;20474;-72
2022/03/21 10:00:33;;;;;;;24.50;16.17;;;12.60;98.40;;;;;;5010437;28;20470;-72
2022/03/21 10:03:00;;;;;;;25.90;15.67;;;12.90;99.00;;;;;;5010925;28;20585;-73
2022/03/21 10:05:34;;;;;;;25.37;16.67;;;13.00;98.30;;;;;;5011063;28;20502;-71
2022/03/21 10:08:29;;;;;;;27.93;16.80;;;13.00;98.50;;;;;;5009614;28;20485;-71
2022/03/21 10:10:59;;;;;;;21.90;15.60;;;13.10;98.40;;;;;;4984748;28;20462;-71
2022/03/21 10:13:29;;;;;;;24.67;16.13;;;13.10;98.40;;;;;;5008425;28;20935;-71
2022/03/21 10:16:11;;;;;;;26.73;16.57;;;13.00;98.00;;;;;;5010738;28;20474;-72
2022/03/21 10:18:39;;;;;;;26.43;17.20;;;13.00;98.10;;;;;;5009702;28;20978;-71
2022/03/21 10:21:13;;;;;;;26.47;16.17;;;13.10;97.50;;;;;;5008642;28;20532;-71
2022/03/21 10:23:40;;;;;;;24.80;14.97;;;13.20;97.20;;;;;;5009763;28;20957;-71
2022/03/21 10:26:26;;;;;;;28.90;18.20;;;13.00;97.50;;;;;;5008607;28;20446;-72
2022/03/21 10:28:54;;;;;;;31.07;17.70;;;13.10;97.60;;;;;;5006915;28;20568;-71
2022/03/21 10:31:37;;;;;;;25.40;17.53;;;13.40;98.20;;;;;;5010665;28;20446;-71
2022/03/21 10:34:05;;;;;;;29.13;17.23;;;13.50;98.30;;;;;;5010700;28;20454;-71
2022/03/21 10:36:32;;;;;;;25.97;15.60;;;13.60;97.60;;;;;;5010315;28;20918;-71
2022/03/21 10:39:08;;;;;;;29.60;16.93;;;13.40;96.20;;;;;;5010689;28;20450;-71
2022/03/21 10:41:35;;;;;;;29.80;17.13;;;13.30;96.60;;;;;;5010759;28;20903;-71
2022/03/21 10:44:03;;;;;;;27.63;16.20;;;13.50;97.50;;;;;;5009950;28;20845;-71
2022/03/21 10:46:30;;;;;;;27.53;16.80;;;13.70;97.70;;;;;;5009329;28;20501;-71
2022/03/21 10:49:06;;;;;;;24.47;16.30;;;14.00;97.20;;;;;;5008769;28;20533;-71
2022/03/21 10:51:47;;;;;;;27.40;17.43;;;14.20;96.40;;;;;;5010198;28;20509;-71
2022/03/21 10:54:36;;;;;;;25.37;18.17;;;14.40;96.40;;;;;;5002538;28;20512;-71
2022/03/21 10:57:03;;;;;;;26.90;17.30;;;14.50;96.60;;;;;;5009455;28;20474;-72
2022/03/21 10:59:30;;;;;;;31.10;17.67;;;14.70;97.00;;;;;;5007956;28;20919;-71
2022/03/21 11:02:10;;;;;;;32.83;19.07;;;15.10;97.40;;;;;;5010494;28;20462;-72
2022/03/21 11:04:41;;;;;;;29.20;18.60;;;15.10;95.40;;;;;;5005163;28;20466;-71
2022/03/21 11:07:11;;;;;;;32.87;18.70;;;15.20;95.10;;;;;;5010213;28;20987;-71
2022/03/21 11:09:39;;;;;;;26.83;17.70;;;15.20;94.60;;;;;;5004101;28;20536;-70
2022/03/21 11:12:08;;;;;;;29.70;18.97;;;15.10;95.10;;;;;;5009468;28;20457;-71
2022/03/21 11:14:37;;;;;;;30.43;18.53;;;15.10;95.10;;;;;;5008252;28;21029;-71
2022/03/21 11:17:05;;;;;;;29.40;18.87;;;15.20;95.50;;;;;;5009300;28;20501;-72
2022/03/21 11:19:32;;;;;;;28.00;18.20;;;15.20;95.00;;;;;;5008122;28;20461;-70
2022/03/21 11:22:00;;;;;;;30.20;18.70;;;15.30;96.00;;;;;;5008541;28;20458;-70
2022/03/21 11:24:27;;;;;;;29.13;18.47;;;15.60;95.10;;;;;;5005412;28;20539;-70
2022/03/21 11:27:03;;;;;;;30.97;18.30;;;15.70;95.10;;;;;;5006584;28;20540;-71
2022/03/21 11:29:41;;;;;;;27.93;18.00;;;15.50;95.00;;;;;;5008609;28;20514;-70
2022/03/21 11:32:23;;;;;;;32.47;19.17;;;15.70;94.80;;;;;;5002664;28;20451;-71
2022/03/21 11:34:57;;;;;;;28.77;19.03;;;15.80;94.70;;;;;;5004866;28;20843;-70
2022/03/21 11:37:27;;;;;;;37.20;19.87;;;15.80;94.20;;;;;;5008076;28;20581;-70
2022/03/21 11:40:26;;;;;;;30.53;18.17;;;15.70;94.00;;;;;;5009099;28;20417;-71
2022/03/21 11:42:55;;;;;;;27.67;18.80;;;15.40;94.10;;;;;;5009054;28;20841;-71
2022/03/21 11:45:23;;;;;;;31.37;18.70;;;15.50;94.90;;;;;;5007824;28;20474;-72
2022/03/21 11:47:49;;;;;;;28.93;18.67;;;15.60;94.70;;;;;;5009318;28;20474;-72
2022/03/21 11:50:26;;;;;;;32.33;18.37;;;15.90;94.90;;;;;;5005864;28;20457;-72
2022/03/21 11:53:10;;;;;;;30.30;19.50;;;16.10;94.70;;;;;;5008584;28;20508;-71
2022/03/21 11:55:38;;;;;;;30.17;19.47;;;16.00;94.00;;;;;;5009220;28;20421;-71
2022/03/21 11:58:42;;;;;;;30.30;19.03;;;16.00;94.20;;;;;;5008251;28;20493;-71
2022/03/21 12:01:10;;;;;;;28.30;18.90;;;15.90;94.70;;;;;;5007254;28;20447;-71
2022/03/21 12:03:38;;;;;;;34.17;20.67;;;15.80;93.70;;;;;;5007268;28;20981;-72
2022/03/21 12:06:23;;;;;;;35.53;20.47;;;15.90;93.30;;;;;;5009727;28;20969;-71
2022/03/21 12:08:53;;;;;;;29.50;19.00;;;15.90;93.00;;;;;;5009509;28;20461;-71
2022/03/21 12:12:03;;;;;;;32.70;19.30;;;15.90;93.30;;;;;;5009495;28;20520;-71
2022/03/21 12:14:41;;;;;;;29.23;18.97;;;16.00;92.90;;;;;;5004254;28;20465;-71
2022/03/21 12:17:28;;;;;;;32.90;20.77;;;16.30;93.60;;;;;;5004712;28;20448;-72
2022/03/21 12:20:03;;;;;;;39.27;20.70;;;16.50;93.70;;;;;;5006003;28;20445;-71
2022/03/21 12:22:37;;;;;;;36.10;19.70;;;16.50;92.20;;;;;;5007381;28;20479;-71
2022/03/21 12:25:08;;;;;;;36.27;20.13;;;16.40;92.50;;;;;;5006893;28;20427;-72
2022/03/21 12:27:37;;;;;;;32.43;20.00;;;16.50;93.00;;;;;;5011680;28;20444;-71
2022/03/21 12:30:35;;;;;;;32.27;20.77;;;16.60;92.80;;;;;;5012343;28;20831;-72
2022/03/21 12:33:28;;;;;;;31.90;19.03;;;16.90;93.40;;;;;;5001017;28;20877;-71
2022/03/21 12:35:58;;;;;;;39.53;21.03;;;17.00;92.60;;;;;;5007606;28;20500;-73
2022/03/21 12:38:27;;;;;;;34.13;19.27;;;16.70;92.60;;;;;;5013205;28;20822;-71
2022/03/21 12:40:58;;;;;;;33.87;19.00;;;16.60;92.50;;;;;;5009145;28;20512;-71
2022/03/21 12:43:27;;;;;;;37.13;21.17;;;16.50;92.60;;;;;;5011489;28;20425;-73
2022/03/21 12:45:58;;;;;;;32.63;18.90;;;16.60;92.70;;;;;;5002024;28;20455;-71
2022/03/21 12:48:30;;;;;;;32.50;20.40;;;16.60;92.40;;;;;;5009941;28;20474;-69
2022/03/21 12:50:57;;;;;;;36.07;20.03;;;16.60;93.50;;;;;;5005153;28;20490;-69
2022/03/21 12:53:25;;;;;;;32.50;20.00;;;16.60;92.70;;;;;;5004509;28;20455;-70
2022/03/21 12:56:01;;;;;;;31.70;20.37;;;16.70;92.80;;;;;;5011386;28;20432;-70
2022/03/21 12:58:28;;;;;;;31.97;19.87;;;16.90;92.40;;;;;;5007379;28;20533;-69
2022/03/21 13:00:56;;;;;;;30.80;19.60;;;16.80;91.90;;;;;;5006414;28;20446;-69